createdAt,value
2022-08-29T00:01:47.758Z,13.74
2022-08-29T00:04:14.122Z,13.73
2022-08-29T00:06:40.658Z,13.71
2022-08-29T00:09:07.131Z,13.66
2022-08-29T00:11:33.672Z,13.64
2022-08-29T00:14:00.040Z,13.62
2022-08-29T00:16:26.449Z,13.59
2022-08-29T00:18:52.804Z,13.56
2022-08-29T00:21:19.102Z,13.52
2022-08-29T00:23:45.458Z,13.50
2022-08-29T00:26:11.762Z,13.49
2022-08-29T00:28:38.246Z,13.47
2022-08-29T00:31:04.569Z,13.46
2022-08-29T00:33:31.047Z,13.45
2022-08-29T00:35:57.388Z,13.43
2022-08-29T00:38:27.688Z,13.43
2022-08-29T00:40:54.771Z,13.40
2022-08-29T00:43:21.284Z,13.38
2022-08-29T00:45:47.658Z,13.37
2022-08-29T00:48:14.100Z,13.35
2022-08-29T00:50:40.519Z,13.32
2022-08-29T00:53:06.934Z,13.31
2022-08-29T00:55:33.454Z,13.30
2022-08-29T00:57:59.928Z,13.25
2022-08-29T01:00:26.426Z,13.18
2022-08-29T01:02:52.838Z,13.17
2022-08-29T01:05:19.189Z,13.13
2022-08-29T01:07:45.587Z,13.09
2022-08-29T01:10:13.385Z,13.06
2022-08-29T01:12:40.408Z,13.04
2022-08-29T01:15:06.881Z,12.96
2022-08-29T01:17:33.455Z,12.95
2022-08-29T01:19:59.852Z,12.98
2022-08-29T01:22:26.336Z,12.99
2022-08-29T01:24:52.953Z,12.93
2022-08-29T01:27:19.464Z,12.85
2022-08-29T01:29:45.928Z,12.79
2022-08-29T01:32:16.860Z,12.73
2022-08-29T01:34:43.526Z,12.62
2022-08-29T01:37:09.849Z,12.60
2022-08-29T01:39:36.174Z,12.56
2022-08-29T01:42:02.666Z,12.53
2022-08-29T01:44:28.991Z,12.50
2022-08-29T01:46:57.954Z,12.43
2022-08-29T01:49:28.314Z,12.43
2022-08-29T01:51:54.640Z,12.45
2022-08-29T01:54:20.962Z,12.44
2022-08-29T01:56:47.250Z,12.43
2022-08-29T01:59:13.683Z,12.38
2022-08-29T02:01:40.387Z,12.38
2022-08-29T02:04:06.819Z,12.37
2022-08-29T02:06:33.286Z,12.39
2022-08-29T02:08:59.607Z,12.40
2022-08-29T02:11:25.965Z,12.40
2022-08-29T02:13:52.276Z,12.37
2022-08-29T02:16:18.678Z,12.35
2022-08-29T02:18:44.991Z,12.33
2022-08-29T02:21:11.525Z,12.30
2022-08-29T02:23:37.803Z,12.28
2022-08-29T02:26:04.066Z,12.29
2022-08-29T02:28:30.411Z,12.28
2022-08-29T02:30:56.997Z,12.24
2022-08-29T02:33:23.390Z,12.21
2022-08-29T02:35:49.657Z,12.20
2022-08-29T02:38:16.345Z,12.18
2022-08-29T02:40:42.745Z,12.16
2022-08-29T02:43:09.041Z,12.17
2022-08-29T02:45:35.490Z,12.16
2022-08-29T02:48:01.813Z,12.15
2022-08-29T02:50:28.257Z,12.11
2022-08-29T02:52:54.662Z,12.09
2022-08-29T02:55:21.103Z,12.07
2022-08-29T02:57:47.448Z,12.05
2022-08-29T03:00:13.697Z,12.05
2022-08-29T03:02:40.041Z,12.02
2022-08-29T03:05:06.352Z,12.00
2022-08-29T03:07:32.660Z,11.97
2022-08-29T03:09:58.946Z,11.95
2022-08-29T03:12:25.325Z,11.93
2022-08-29T03:14:54.544Z,11.94
2022-08-29T03:17:20.899Z,11.94
2022-08-29T03:19:47.373Z,11.92
2022-08-29T03:22:13.681Z,11.88
2022-08-29T03:24:40.128Z,11.88
2022-08-29T03:27:06.405Z,11.85
2022-08-29T03:29:32.747Z,11.84
2022-08-29T03:31:59.237Z,11.84
2022-08-29T03:34:25.575Z,11.84
2022-08-29T03:36:52.004Z,11.84
2022-08-29T03:39:18.304Z,11.85
2022-08-29T03:41:44.606Z,11.83
2022-08-29T03:44:10.882Z,11.84
2022-08-29T03:46:37.512Z,11.81
2022-08-29T03:49:04.005Z,11.83
2022-08-29T03:51:30.399Z,11.82
2022-08-29T03:53:56.927Z,11.83
2022-08-29T03:56:23.273Z,11.83
2022-08-29T03:58:53.127Z,11.83
2022-08-29T04:01:19.949Z,11.83
2022-08-29T04:03:46.824Z,11.83
2022-08-29T04:06:13.294Z,11.81
2022-08-29T04:08:39.631Z,11.82
2022-08-29T04:11:05.952Z,11.81
2022-08-29T04:13:32.425Z,11.77
2022-08-29T04:15:58.774Z,11.78
2022-08-29T04:18:25.214Z,11.76
2022-08-29T04:20:51.517Z,11.73
2022-08-29T04:23:17.810Z,11.74
2022-08-29T04:25:44.276Z,11.75
2022-08-29T04:28:10.708Z,11.76
2022-08-29T04:30:37.107Z,11.79
2022-08-29T04:33:03.390Z,11.78
2022-08-29T04:35:29.741Z,11.79
2022-08-29T04:37:56.127Z,11.78
2022-08-29T04:40:22.506Z,11.79
2022-08-29T04:42:49.350Z,11.78
2022-08-29T04:45:15.662Z,11.77
2022-08-29T04:47:41.997Z,11.76
2022-08-29T04:50:08.290Z,11.76
2022-08-29T04:52:34.783Z,11.77
2022-08-29T04:55:01.254Z,11.78
2022-08-29T04:57:27.488Z,11.79
2022-08-29T04:59:54.017Z,11.82
2022-08-29T05:02:20.389Z,11.84
2022-08-29T05:04:46.780Z,11.88
2022-08-29T05:07:13.065Z,11.98
2022-08-29T05:09:39.520Z,11.99
2022-08-29T05:12:10.064Z,12.00
2022-08-29T05:14:36.637Z,12.05
2022-08-29T05:17:02.961Z,12.10
2022-08-29T05:19:29.268Z,12.16
2022-08-29T05:22:00.939Z,12.22
2022-08-29T05:24:27.247Z,12.26
2022-08-29T05:26:53.824Z,12.30
2022-08-29T05:29:20.119Z,12.35
2022-08-29T05:31:46.575Z,12.37
2022-08-29T05:34:34.718Z,12.41
2022-08-29T05:36:59.160Z,12.45
2022-08-29T05:39:25.450Z,12.49
2022-08-29T05:41:51.941Z,12.53
2022-08-29T05:44:18.244Z,12.58
2022-08-29T05:46:44.665Z,12.62
2022-08-29T05:49:11.009Z,12.65
2022-08-29T05:51:39.684Z,12.71
2022-08-29T05:54:06.278Z,12.75
2022-08-29T05:56:32.584Z,12.79
2022-08-29T05:58:58.924Z,12.81
2022-08-29T06:01:25.846Z,12.86
2022-08-29T06:03:52.410Z,12.91
2022-08-29T06:06:18.939Z,12.95
2022-08-29T06:08:45.596Z,13.02
2022-08-29T06:11:12.018Z,13.06
2022-08-29T06:13:38.362Z,13.11
2022-08-29T06:16:07.418Z,13.16
2022-08-29T06:18:35.975Z,13.21
2022-08-29T06:21:05.096Z,13.29
2022-08-29T06:23:31.452Z,13.34
2022-08-29T06:25:57.814Z,13.43
2022-08-29T06:28:24.283Z,13.46
2022-08-29T06:30:50.849Z,13.48
2022-08-29T06:33:18.761Z,13.49
2022-08-29T06:35:45.255Z,13.48
2022-08-29T06:38:14.089Z,13.53
2022-08-29T06:40:40.681Z,13.54
2022-08-29T06:43:07.131Z,13.50
2022-08-29T06:45:33.444Z,13.56
2022-08-29T06:47:59.752Z,13.60
2022-08-29T06:50:26.084Z,13.67
2022-08-29T06:52:52.601Z,13.77
2022-08-29T06:55:21.575Z,13.83
2022-08-29T06:57:50.714Z,13.83
2022-08-29T07:00:21.392Z,13.84
2022-08-29T07:02:52.463Z,13.93
2022-08-29T07:05:19.248Z,14.04
2022-08-29T07:07:47.683Z,14.07
2022-08-29T07:10:16.542Z,14.10
2022-08-29T07:12:46.365Z,14.15
2022-08-29T07:15:13.555Z,14.19
2022-08-29T07:17:40.094Z,14.15
2022-08-29T07:20:06.511Z,14.21
2022-08-29T07:22:32.845Z,14.25
2022-08-29T07:24:59.236Z,14.28
2022-08-29T07:27:25.801Z,14.27
2022-08-29T07:29:52.301Z,14.23
2022-08-29T07:32:21.665Z,14.17
2022-08-29T07:34:54.101Z,14.08
2022-08-29T07:37:22.353Z,14.09
2022-08-29T07:39:48.607Z,14.15
2022-08-29T07:42:14.859Z,14.29
2022-08-29T07:44:41.178Z,14.32
2022-08-29T07:47:07.465Z,14.27
2022-08-29T07:49:41.142Z,14.26
2022-08-29T07:52:09.427Z,14.16
2022-08-29T07:54:35.740Z,14.15
2022-08-29T07:57:02.038Z,14.15
2022-08-29T07:59:28.367Z,14.15
2022-08-29T08:01:54.722Z,14.17
2022-08-29T08:04:21.153Z,14.23
2022-08-29T08:06:50.589Z,14.26
2022-08-29T08:09:16.894Z,14.23
2022-08-29T08:11:43.190Z,14.35
2022-08-29T08:14:09.504Z,14.43
2022-08-29T08:16:36.032Z,14.51
2022-08-29T08:19:02.316Z,14.58
2022-08-29T08:21:28.559Z,14.58
2022-08-29T08:23:55.047Z,14.62
2022-08-29T08:26:21.305Z,14.65
2022-08-29T08:28:47.646Z,14.71
2022-08-29T08:31:14.413Z,14.76
2022-08-29T08:33:40.849Z,14.76
2022-08-29T08:36:07.171Z,14.75
2022-08-29T08:38:33.527Z,14.77
2022-08-29T08:40:59.816Z,14.93
2022-08-29T08:43:26.837Z,15.04
2022-08-29T08:45:53.345Z,15.17
2022-08-29T08:48:19.718Z,15.27
2022-08-29T08:50:46.018Z,15.37
2022-08-29T08:53:12.363Z,15.37
2022-08-29T08:55:38.664Z,15.36
2022-08-29T08:58:04.966Z,15.37
2022-08-29T09:00:31.267Z,15.37
2022-08-29T09:02:57.693Z,15.38
2022-08-29T09:05:24.019Z,15.39
2022-08-29T09:07:50.491Z,15.42
2022-08-29T09:10:17.211Z,15.41
2022-08-29T09:12:43.445Z,15.43
2022-08-29T09:15:13.846Z,15.49
2022-08-29T09:17:40.495Z,15.54
2022-08-29T09:20:08.718Z,15.57
2022-08-29T09:22:35.584Z,15.59
2022-08-29T09:25:02.000Z,15.65
2022-08-29T09:27:28.349Z,15.75
2022-08-29T09:29:55.471Z,15.75
2022-08-29T09:32:22.713Z,15.75
2022-08-29T09:37:35.654Z,15.91
2022-08-29T09:40:02.179Z,16.01
2022-08-29T09:42:28.502Z,16.17
2022-08-29T09:44:54.803Z,16.26
2022-08-29T09:47:21.082Z,16.30
2022-08-29T09:49:47.505Z,16.37
2022-08-29T09:52:13.979Z,16.57
2022-08-29T09:54:41.253Z,16.61
2022-08-29T09:57:07.847Z,16.63
2022-08-29T09:59:35.323Z,16.77
2022-08-29T10:02:01.905Z,16.77
2022-08-29T10:04:28.507Z,16.81
2022-08-29T10:06:54.804Z,16.69
2022-08-29T10:09:21.216Z,16.62
2022-08-29T10:11:47.477Z,16.67
2022-08-29T10:14:14.504Z,16.71
2022-08-29T10:16:41.094Z,16.68
2022-08-29T10:19:07.503Z,16.70
2022-08-29T10:21:33.737Z,16.66
2022-08-29T10:24:00.099Z,16.69
2022-08-29T10:26:26.601Z,16.78
2022-08-29T10:28:52.880Z,16.82
2022-08-29T10:31:19.240Z,16.84
2022-08-29T10:33:45.569Z,16.92
2022-08-29T10:36:12.001Z,17.00
2022-08-29T10:38:38.359Z,17.05
2022-08-29T10:41:04.895Z,17.08
2022-08-29T10:43:31.210Z,17.16
2022-08-29T10:45:57.506Z,17.27
2022-08-29T10:48:23.812Z,17.39
2022-08-29T10:50:50.100Z,17.36
2022-08-29T10:53:16.391Z,17.45
2022-08-29T10:55:42.896Z,17.45
2022-08-29T10:58:12.586Z,17.47
2022-08-29T11:00:39.283Z,17.59
2022-08-29T11:03:05.606Z,17.56
2022-08-29T11:05:31.871Z,17.61
2022-08-29T11:07:58.108Z,17.70
2022-08-29T11:10:24.459Z,17.76
2022-08-29T11:12:50.818Z,17.76
2022-08-29T11:15:17.154Z,17.80
2022-08-29T11:17:43.698Z,17.97
2022-08-29T11:20:10.566Z,17.99
2022-08-29T11:22:36.853Z,18.09
2022-08-29T11:25:03.285Z,18.16
2022-08-29T11:27:29.725Z,18.34
2022-08-29T11:29:56.199Z,18.45
2022-08-29T11:32:22.482Z,18.46
2022-08-29T11:34:48.794Z,18.40
2022-08-29T11:37:15.140Z,18.44
2022-08-29T11:39:41.523Z,18.40
2022-08-29T11:42:07.831Z,18.36
2022-08-29T11:44:34.383Z,18.32
2022-08-29T11:47:00.918Z,18.30
2022-08-29T11:49:27.424Z,18.30
2022-08-29T11:51:53.768Z,18.29
2022-08-29T11:54:20.181Z,18.28
2022-08-29T11:56:46.521Z,18.31
2022-08-29T11:59:12.894Z,18.46
2022-08-29T12:01:39.655Z,18.50
2022-08-29T12:04:06.111Z,18.46
2022-08-29T12:06:32.510Z,18.49
2022-08-29T12:09:02.844Z,18.61
2022-08-29T12:11:30.936Z,18.70
2022-08-29T12:13:57.268Z,18.76
2022-08-29T12:16:23.553Z,18.86
2022-08-29T12:18:49.859Z,19.00
2022-08-29T12:21:16.209Z,19.10
2022-08-29T12:23:42.480Z,19.10
2022-08-29T12:26:21.950Z,19.20
2022-08-29T12:28:49.051Z,19.15
2022-08-29T12:31:15.436Z,19.34
2022-08-29T12:33:41.973Z,19.43
2022-08-29T12:36:08.467Z,19.43
2022-08-29T12:38:38.781Z,19.43
2022-08-29T12:41:08.201Z,19.53
2022-08-29T12:43:34.492Z,19.65
2022-08-29T12:46:00.815Z,19.44
2022-08-29T12:48:27.131Z,19.43
2022-08-29T12:50:53.497Z,19.72
2022-08-29T12:53:19.809Z,19.92
2022-08-29T12:55:46.191Z,20.02
2022-08-29T12:58:12.551Z,19.91
2022-08-29T13:00:38.857Z,19.84
2022-08-29T13:03:09.515Z,19.72
2022-08-29T13:05:41.654Z,19.78
2022-08-29T13:08:12.467Z,19.82
2022-08-29T13:10:39.687Z,19.82
2022-08-29T13:13:05.934Z,19.91
2022-08-29T13:15:33.422Z,19.94
2022-08-29T13:18:00.048Z,19.98
2022-08-29T13:20:26.330Z,20.04
2022-08-29T13:22:52.727Z,20.03
2022-08-29T13:25:19.011Z,20.13
2022-08-29T13:27:45.400Z,20.10
2022-08-29T13:30:11.714Z,20.04
2022-08-29T13:32:38.028Z,20.04
2022-08-29T13:35:04.296Z,20.00
2022-08-29T13:37:30.664Z,19.97
2022-08-29T13:39:56.963Z,20.04
2022-08-29T13:42:25.452Z,20.03
2022-08-29T13:44:51.763Z,20.12
2022-08-29T13:47:18.210Z,20.28
2022-08-29T13:49:45.807Z,20.39
2022-08-29T13:52:14.565Z,20.60
2022-08-29T13:54:40.813Z,20.75
2022-08-29T13:57:08.016Z,20.69
2022-08-29T13:59:35.933Z,20.82
2022-08-29T14:02:10.684Z,21.08
2022-08-29T14:04:39.840Z,21.08
2022-08-29T14:07:07.092Z,21.18
2022-08-29T14:09:33.743Z,21.36
2022-08-29T14:12:00.166Z,21.51
2022-08-29T14:14:26.464Z,21.75
2022-08-29T14:16:52.775Z,21.97
2022-08-29T14:19:19.252Z,22.07
2022-08-29T14:21:45.619Z,22.21
2022-08-29T14:24:11.926Z,22.39
2022-08-29T14:26:38.236Z,22.39
2022-08-29T14:29:04.630Z,22.13
2022-08-29T14:31:30.961Z,22.03
2022-08-29T14:33:57.294Z,22.27
2022-08-29T14:36:25.613Z,22.53
2022-08-29T14:38:53.713Z,22.40
2022-08-29T14:41:20.034Z,22.20
2022-08-29T14:43:46.684Z,21.94
2022-08-29T14:46:12.944Z,21.67
2022-08-29T14:48:39.452Z,21.71
2022-08-29T14:51:06.809Z,21.70
2022-08-29T14:53:37.908Z,21.72
2022-08-29T14:56:44.825Z,21.72
2022-08-29T14:59:08.202Z,21.64
2022-08-29T15:01:34.520Z,21.56
2022-08-29T15:04:00.841Z,21.46
2022-08-29T15:06:27.154Z,21.44
2022-08-29T15:08:53.590Z,21.66
2022-08-29T15:11:19.841Z,21.86
2022-08-29T15:13:46.152Z,22.01
2022-08-29T15:16:12.574Z,21.91
2022-08-29T15:19:37.201Z,21.79
2022-08-29T15:21:25.222Z,21.51
2022-08-29T15:23:51.573Z,21.37
2022-08-29T15:26:17.821Z,21.17
2022-08-29T15:28:44.189Z,20.86
2022-08-29T15:31:10.538Z,20.99
2022-08-29T15:33:36.992Z,21.27
2022-08-29T15:36:03.222Z,21.71
2022-08-29T15:38:29.547Z,21.88
2022-08-29T15:40:55.829Z,21.92
2022-08-29T15:43:22.480Z,21.89
2022-08-29T15:45:48.737Z,22.04
2022-08-29T15:48:16.417Z,22.09
2022-08-29T15:50:43.170Z,21.84
2022-08-29T15:53:09.424Z,21.70
2022-08-29T15:55:35.634Z,21.73
2022-08-29T15:58:01.884Z,21.69
2022-08-29T16:00:30.326Z,21.49
2022-08-29T16:02:57.522Z,21.56
2022-08-29T16:05:23.866Z,21.54
2022-08-29T16:07:50.127Z,21.49
2022-08-29T16:10:16.424Z,21.43
2022-08-29T16:12:42.681Z,21.32
2022-08-29T16:15:09.985Z,21.15
2022-08-29T16:17:36.414Z,21.03
2022-08-29T16:20:02.691Z,20.96
2022-08-29T16:22:29.057Z,20.83
2022-08-29T16:24:55.283Z,20.76
2022-08-29T16:27:21.522Z,20.74
2022-08-29T16:29:47.748Z,20.72
2022-08-29T16:32:14.013Z,20.67
2022-08-29T16:34:40.350Z,20.61
2022-08-29T16:37:06.603Z,20.55
2022-08-29T16:39:33.024Z,20.63
2022-08-29T16:41:59.257Z,20.70
2022-08-29T16:44:25.569Z,20.84
2022-08-29T16:46:51.810Z,20.99
2022-08-29T16:49:18.040Z,21.16
2022-08-29T16:51:44.290Z,21.25
2022-08-29T16:54:10.521Z,21.20
2022-08-29T16:56:36.781Z,21.05
2022-08-29T16:59:03.008Z,20.97
2022-08-29T17:01:29.429Z,20.90
2022-08-29T17:03:55.709Z,20.90
2022-08-29T17:06:21.930Z,21.02
2022-08-29T17:08:48.189Z,21.08
2022-08-29T17:11:14.421Z,21.08
2022-08-29T17:13:40.690Z,21.13
2022-08-29T17:16:06.924Z,21.17
2022-08-29T17:18:33.164Z,21.10
2022-08-29T17:20:59.383Z,21.00
2022-08-29T17:23:25.661Z,20.93
2022-08-29T17:25:51.892Z,20.77
2022-08-29T17:28:27.653Z,20.63
2022-08-29T17:30:53.954Z,20.54
2022-08-29T17:33:20.255Z,20.42
2022-08-29T17:35:46.497Z,20.27
2022-08-29T17:38:12.812Z,20.16
2022-08-29T17:40:40.365Z,20.06
2022-08-29T17:43:08.580Z,20.03
2022-08-29T17:45:34.862Z,19.94
2022-08-29T17:48:01.116Z,19.86
2022-08-29T17:50:27.337Z,19.77
2022-08-29T17:52:53.563Z,19.73
2022-08-29T17:55:19.781Z,19.68
2022-08-29T17:57:46.013Z,19.63
2022-08-29T18:00:12.228Z,19.58
2022-08-29T18:02:38.568Z,19.54
2022-08-29T18:05:04.835Z,19.49
2022-08-29T18:07:31.321Z,19.47
2022-08-29T18:09:59.637Z,19.42
2022-08-29T18:12:25.909Z,19.37
2022-08-29T18:14:52.161Z,19.33
2022-08-29T18:17:18.424Z,19.26
2022-08-29T18:19:44.644Z,19.20
2022-08-29T18:22:10.903Z,19.13
2022-08-29T18:24:37.108Z,19.09
2022-08-29T18:27:03.353Z,19.04
2022-08-29T18:29:29.587Z,18.98
2022-08-29T18:31:55.821Z,18.92
2022-08-29T18:34:22.068Z,18.84
2022-08-29T18:36:48.294Z,18.77
2022-08-29T18:39:14.526Z,18.72
2022-08-29T18:41:40.852Z,18.65
2022-08-29T18:44:07.171Z,18.58
2022-08-29T18:46:33.498Z,18.51
2022-08-29T18:48:59.728Z,18.47
2022-08-29T18:51:26.076Z,18.41
2022-08-29T18:53:52.317Z,18.35
2022-08-29T18:56:18.647Z,18.30
2022-08-29T18:58:45.083Z,18.25
2022-08-29T19:01:11.525Z,18.15
2022-08-29T19:03:37.915Z,18.09
2022-08-29T19:06:04.196Z,18.02
2022-08-29T19:08:30.539Z,17.99
2022-08-29T19:10:56.889Z,17.94
2022-08-29T19:13:25.280Z,17.89
2022-08-29T19:15:51.801Z,17.84
2022-08-29T19:18:18.207Z,17.81
2022-08-29T19:20:44.686Z,17.78
2022-08-29T19:23:11.117Z,17.74
2022-08-29T19:25:37.636Z,17.67
2022-08-29T19:28:04.127Z,17.62
2022-08-29T19:30:30.445Z,17.57
2022-08-29T19:32:56.754Z,17.52
2022-08-29T19:35:23.210Z,17.47
2022-08-29T19:37:49.857Z,17.43
2022-08-29T19:40:16.269Z,17.37
2022-08-29T19:42:42.566Z,17.31
2022-08-29T19:45:09.045Z,17.26
2022-08-29T19:47:35.354Z,17.22
2022-08-29T19:50:01.942Z,17.18
2022-08-29T19:52:28.694Z,17.14
2022-08-29T19:54:55.281Z,17.09
2022-08-29T19:57:21.718Z,17.05
2022-08-29T19:59:48.738Z,17.01
2022-08-29T20:02:15.202Z,16.98
2022-08-29T20:04:41.616Z,16.94
2022-08-29T20:07:08.632Z,16.90
2022-08-29T20:09:34.918Z,16.85
2022-08-29T20:12:01.247Z,16.80
2022-08-29T20:14:27.542Z,16.77
2022-08-29T20:16:56.237Z,16.74
2022-08-29T20:19:22.559Z,16.73
2022-08-29T20:21:49.127Z,16.71
2022-08-29T20:24:15.758Z,16.70
2022-08-29T20:26:42.883Z,16.69
2022-08-29T20:29:09.176Z,16.69
2022-08-29T20:31:35.601Z,16.68
2022-08-29T20:34:02.018Z,16.66
2022-08-29T20:36:28.382Z,16.66
2022-08-29T20:38:54.734Z,16.65
2022-08-29T20:41:21.266Z,16.65
2022-08-29T20:43:47.771Z,16.63
2022-08-29T20:46:14.165Z,16.61
2022-08-29T20:48:40.525Z,16.60
2022-08-29T20:51:06.923Z,16.59
2022-08-29T20:53:33.579Z,16.58
2022-08-29T20:56:00.142Z,16.57
2022-08-29T20:58:26.573Z,16.56
2022-08-29T21:00:55.405Z,16.53
2022-08-29T21:03:21.894Z,16.50
2022-08-29T21:05:48.255Z,16.48
2022-08-29T21:08:14.583Z,16.44
2022-08-29T21:10:41.010Z,16.42
2022-08-29T21:13:07.308Z,16.40
2022-08-29T21:15:33.665Z,16.37
2022-08-29T21:17:59.960Z,16.34
2022-08-29T21:20:26.325Z,16.32
2022-08-29T21:22:52.633Z,16.28
2022-08-29T21:25:18.956Z,16.25
2022-08-29T21:27:45.228Z,16.21
2022-08-29T21:30:11.556Z,16.18
2022-08-29T21:32:38.072Z,16.17
2022-08-29T21:35:04.424Z,16.13
2022-08-29T21:37:30.830Z,16.09
2022-08-29T21:39:57.259Z,16.07
2022-08-29T21:42:23.601Z,16.05
2022-08-29T21:44:50.126Z,16.01
2022-08-29T21:47:17.968Z,15.99
2022-08-29T21:49:44.594Z,15.95
2022-08-29T21:52:10.839Z,15.93
2022-08-29T21:54:37.215Z,15.90
2022-08-29T21:57:03.497Z,15.87
2022-08-29T21:59:29.760Z,15.84
2022-08-29T22:01:56.229Z,15.83
2022-08-29T22:04:28.306Z,15.81
2022-08-29T22:06:55.520Z,15.78
2022-08-29T22:09:22.342Z,15.76
2022-08-29T22:11:48.583Z,15.74
2022-08-29T22:14:14.836Z,15.72
2022-08-29T22:16:41.089Z,15.70
2022-08-29T22:19:07.341Z,15.66
2022-08-29T22:21:33.685Z,15.64
2022-08-29T22:23:59.924Z,15.63
2022-08-29T22:26:26.154Z,15.61
2022-08-29T22:28:52.378Z,15.59
2022-08-29T22:31:18.726Z,15.58
2022-08-29T22:33:45.048Z,15.56
2022-08-29T22:36:11.284Z,15.54
2022-08-29T22:38:37.529Z,15.52
2022-08-29T22:41:03.781Z,15.51
2022-08-29T22:43:30.008Z,15.50
2022-08-29T22:45:56.264Z,15.48
2022-08-29T22:48:22.483Z,15.48
2022-08-29T22:50:57.930Z,15.47
2022-08-29T22:53:24.807Z,15.47
2022-08-29T22:55:51.221Z,15.45
2022-08-29T22:58:17.467Z,15.44
2022-08-29T23:00:43.702Z,15.43
2022-08-29T23:03:10.002Z,15.38
2022-08-29T23:05:36.327Z,15.35
2022-08-29T23:08:02.565Z,15.32
2022-08-29T23:10:28.875Z,15.30
2022-08-29T23:12:55.342Z,15.28
2022-08-29T23:15:21.590Z,15.26
2022-08-29T23:17:47.822Z,15.22
2022-08-29T23:20:14.073Z,15.20
2022-08-29T23:22:42.851Z,15.19
2022-08-29T23:25:09.433Z,15.20
2022-08-29T23:27:35.674Z,15.20
2022-08-29T23:30:01.925Z,15.20
2022-08-29T23:32:28.157Z,15.20
2022-08-29T23:34:54.384Z,15.18
2022-08-29T23:37:20.691Z,15.18
2022-08-29T23:39:47.284Z,15.16
2022-08-29T23:42:13.509Z,15.13
2022-08-29T23:44:39.754Z,15.12
2022-08-29T23:47:05.967Z,15.06
2022-08-29T23:49:34.852Z,15.04
2022-08-29T23:52:01.109Z,15.01
2022-08-29T23:54:27.364Z,14.98
2022-08-29T23:56:53.616Z,14.94
2022-08-29T23:59:19.879Z,14.93
